sensor_id;sensor_type;location;lat;lon;timestamp;pressure;altitude;pressure_sealevel;temperature;humidity
63019;BME280;49105;46.046;10.760;2023-08-08T00:02:00;95902.81;;;13.43;59.46
63019;BME280;49105;46.046;10.760;2023-08-08T00:04:31;95904.56;;;13.52;59.42
63019;BME280;49105;46.046;10.760;2023-08-08T00:07:09;95903.72;;;13.57;59.53
63019;BME280;49105;46.046;10.760;2023-08-08T00:09:38;95905.59;;;13.32;60.53
63019;BME280;49105;46.046;10.760;2023-08-08T00:12:04;95908.34;;;13.22;60.80
63019;BME280;49105;46.046;10.760;2023-08-08T00:14:35;95903.94;;;13.36;60.43
63019;BME280;49105;46.046;10.760;2023-08-08T00:17:01;95901.44;;;13.45;60.20
63019;BME280;49105;46.046;10.760;2023-08-08T00:19:27;95908.38;;;13.46;60.18
63019;BME280;49105;46.046;10.760;2023-08-08T00:22:03;95909.22;;;13.42;59.96
63019;BME280;49105;46.046;10.760;2023-08-08T00:24:34;95904.97;;;13.40;59.75
63019;BME280;49105;46.046;10.760;2023-08-08T00:27:06;95903.63;;;13.43;59.12
63019;BME280;49105;46.046;10.760;2023-08-08T00:29:40;95902.69;;;13.53;59.13
63019;BME280;49105;46.046;10.760;2023-08-08T00:32:06;95911.75;;;13.28;59.32
63019;BME280;49105;46.046;10.760;2023-08-08T00:34:32;95922.84;;;13.06;60.71
63019;BME280;49105;46.046;10.760;2023-08-08T00:37:00;95907.19;;;13.04;60.83
63019;BME280;49105;46.046;10.760;2023-08-08T00:39:26;95924.34;;;13.17;60.22
63019;BME280;49105;46.046;10.760;2023-08-08T00:41:51;95920.00;;;13.26;59.99
63019;BME280;49105;46.046;10.760;2023-08-08T00:44:20;95920.25;;;13.30;59.85
63019;BME280;49105;46.046;10.760;2023-08-08T00:46:58;95915.16;;;13.33;59.23
63019;BME280;49105;46.046;10.760;2023-08-08T00:49:30;95916.69;;;13.39;59.64
63019;BME280;49105;46.046;10.760;2023-08-08T00:52:01;95925.22;;;13.36;59.20
63019;BME280;49105;46.046;10.760;2023-08-08T00:54:27;95923.34;;;13.08;59.97
63019;BME280;49105;46.046;10.760;2023-08-08T00:56:52;95929.69;;;13.12;60.41
63019;BME280;49105;46.046;10.760;2023-08-08T00:59:18;95926.72;;;13.19;60.26
63019;BME280;49105;46.046;10.760;2023-08-08T01:01:50;95923.75;;;13.25;59.85
63019;BME280;49105;46.046;10.760;2023-08-08T01:04:28;95936.22;;;13.25;59.86
63019;BME280;49105;46.046;10.760;2023-08-08T01:07:15;95919.84;;;13.12;59.72
63019;BME280;49105;46.046;10.760;2023-08-08T01:10:12;95936.00;;;12.92;60.38
63019;BME280;49105;46.046;10.760;2023-08-08T01:12:57;95927.63;;;13.04;61.05
63019;BME280;49105;46.046;10.760;2023-08-08T01:15:43;95930.81;;;13.06;60.82
63019;BME280;49105;46.046;10.760;2023-08-08T01:18:19;95931.84;;;13.10;59.88
63019;BME280;49105;46.046;10.760;2023-08-08T01:20:55;95925.16;;;13.12;59.62
63019;BME280;49105;46.046;10.760;2023-08-08T01:26:16;95922.31;;;13.04;60.37
63019;BME280;49105;46.046;10.760;2023-08-08T01:28:47;95916.44;;;13.07;60.14
63019;BME280;49105;46.046;10.760;2023-08-08T01:31:20;95920.81;;;12.98;59.66
63019;BME280;49105;46.046;10.760;2023-08-08T01:33:52;95918.94;;;12.69;61.04
63019;BME280;49105;46.046;10.760;2023-08-08T01:36:39;95907.31;;;12.60;61.50
63019;BME280;49105;46.046;10.760;2023-08-08T01:39:13;95904.53;;;12.75;62.02
63019;BME280;49105;46.046;10.760;2023-08-08T01:41:41;95909.66;;;12.96;61.04
63019;BME280;49105;46.046;10.760;2023-08-08T01:44:10;95902.66;;;13.05;60.40
63019;BME280;49105;46.046;10.760;2023-08-08T01:46:43;95907.47;;;13.03;60.41
63019;BME280;49105;46.046;10.760;2023-08-08T01:49:08;95910.13;;;13.03;60.32
63019;BME280;49105;46.046;10.760;2023-08-08T01:51:40;95908.38;;;12.93;60.08
63019;BME280;49105;46.046;10.760;2023-08-08T01:54:09;95905.47;;;12.89;60.53
63019;BME280;49105;46.046;10.760;2023-08-08T01:56:37;95906.19;;;13.00;60.49
63019;BME280;49105;46.046;10.760;2023-08-08T01:59:07;95907.22;;;12.99;60.15
63019;BME280;49105;46.046;10.760;2023-08-08T02:01:32;95898.22;;;12.95;60.07
63019;BME280;49105;46.046;10.760;2023-08-08T02:04:04;95908.53;;;13.02;59.72
63019;BME280;49105;46.046;10.760;2023-08-08T02:06:39;95901.66;;;13.01;59.45
63019;BME280;49105;46.046;10.760;2023-08-08T02:09:07;95893.22;;;12.94;59.78
63019;BME280;49105;46.046;10.760;2023-08-08T02:11:38;95894.66;;;12.81;60.23
63019;BME280;49105;46.046;10.760;2023-08-08T02:14:10;95896.38;;;12.66;60.98
63019;BME280;49105;46.046;10.760;2023-08-08T02:16:46;95891.41;;;12.60;61.40
63019;BME280;49105;46.046;10.760;2023-08-08T02:19:11;95898.34;;;12.51;61.93
63019;BME280;49105;46.046;10.760;2023-08-08T02:21:49;95897.59;;;12.45;62.34
63019;BME280;49105;46.046;10.760;2023-08-08T02:24:17;95892.81;;;12.47;62.26
63019;BME280;49105;46.046;10.760;2023-08-08T02:26:52;95892.19;;;12.60;61.54
63019;BME280;49105;46.046;10.760;2023-08-08T02:29:27;95897.63;;;12.74;61.35
63019;BME280;49105;46.046;10.760;2023-08-08T02:32:03;95902.88;;;12.84;61.30
63019;BME280;49105;46.046;10.760;2023-08-08T02:34:34;95899.78;;;12.72;60.98
63019;BME280;49105;46.046;10.760;2023-08-08T02:37:12;95890.38;;;12.56;61.53
63019;BME280;49105;46.046;10.760;2023-08-08T02:39:44;95883.19;;;12.56;61.59
63019;BME280;49105;46.046;10.760;2023-08-08T02:42:15;95883.44;;;12.60;61.72
63019;BME280;49105;46.046;10.760;2023-08-08T02:44:41;95884.53;;;12.54;62.08
63019;BME280;49105;46.046;10.760;2023-08-08T02:47:15;95887.19;;;12.54;62.31
63019;BME280;49105;46.046;10.760;2023-08-08T02:49:47;95892.22;;;12.55;62.08
63019;BME280;49105;46.046;10.760;2023-08-08T02:54:59;95894.31;;;12.58;61.76
63019;BME280;49105;46.046;10.760;2023-08-08T02:57:28;95893.53;;;12.58;61.93
63019;BME280;49105;46.046;10.760;2023-08-08T02:59:59;95893.53;;;12.58;61.95
63019;BME280;49105;46.046;10.760;2023-08-08T03:02:25;95884.78;;;12.57;61.61
63019;BME280;49105;46.046;10.760;2023-08-08T03:04:51;95892.69;;;12.62;61.82
63019;BME280;49105;46.046;10.760;2023-08-08T03:07:23;95888.63;;;12.70;60.96
63019;BME280;49105;46.046;10.760;2023-08-08T03:09:57;95875.59;;;12.45;61.65
63019;BME280;49105;46.046;10.760;2023-08-08T03:12:23;95888.13;;;12.34;62.43
63019;BME280;49105;46.046;10.760;2023-08-08T03:14:51;95890.25;;;12.37;62.72
63019;BME280;49105;46.046;10.760;2023-08-08T03:17:17;95887.34;;;12.33;63.26
63019;BME280;49105;46.046;10.760;2023-08-08T03:19:52;95886.84;;;12.31;63.21
63019;BME280;49105;46.046;10.760;2023-08-08T03:22:23;95892.66;;;12.33;63.02
63019;BME280;49105;46.046;10.760;2023-08-08T03:24:58;95882.03;;;12.33;63.29
63019;BME280;49105;46.046;10.760;2023-08-08T03:27:28;95884.03;;;12.52;62.71
63019;BME280;49105;46.046;10.760;2023-08-08T03:30:03;95886.09;;;12.55;62.72
63019;BME280;49105;46.046;10.760;2023-08-08T03:32:31;95891.41;;;12.60;62.22
63019;BME280;49105;46.046;10.760;2023-08-08T03:34:57;95883.88;;;12.67;62.23
63019;BME280;49105;46.046;10.760;2023-08-08T03:37:28;95891.53;;;12.74;61.88
63019;BME280;49105;46.046;10.760;2023-08-08T03:40:03;95888.75;;;12.55;62.00
63019;BME280;49105;46.046;10.760;2023-08-08T03:42:38;95886.31;;;12.29;62.78
63019;BME280;49105;46.046;10.760;2023-08-08T03:45:12;95892.78;;;12.13;63.72
63019;BME280;49105;46.046;10.760;2023-08-08T03:47:38;95896.47;;;12.22;63.53
63019;BME280;49105;46.046;10.760;2023-08-08T03:50:09;95900.34;;;12.35;63.39
63019;BME280;49105;46.046;10.760;2023-08-08T03:52:35;95888.13;;;12.34;63.57
63019;BME280;49105;46.046;10.760;2023-08-08T03:55:08;95886.88;;;12.26;63.78
63019;BME280;49105;46.046;10.760;2023-08-08T03:57:36;95892.91;;;12.37;63.52
63019;BME280;49105;46.046;10.760;2023-08-08T04:00:08;95882.41;;;12.51;62.87
63019;BME280;49105;46.046;10.760;2023-08-08T04:02:36;95880.59;;;12.51;63.05
63019;BME280;49105;46.046;10.760;2023-08-08T04:05:05;95875.06;;;12.42;63.20
63019;BME280;49105;46.046;10.760;2023-08-08T04:07:40;95874.22;;;12.18;64.17
63019;BME280;49105;46.046;10.760;2023-08-08T04:10:11;95877.75;;;12.03;64.28
63019;BME280;49105;46.046;10.760;2023-08-08T04:12:38;95885.66;;;12.08;63.82
63019;BME280;49105;46.046;10.760;2023-08-08T04:15:09;95887.47;;;12.18;63.51
63019;BME280;49105;46.046;10.760;2023-08-08T04:17:54;95887.69;;;12.22;63.39
63019;BME280;49105;46.046;10.760;2023-08-08T04:20:22;95890.28;;;12.32;63.33
63019;BME280;49105;46.046;10.760;2023-08-08T04:22:57;95887.78;;;12.46;63.17
63019;BME280;49105;46.046;10.760;2023-08-08T04:25:23;95884.28;;;12.55;62.92
63019;BME280;49105;46.046;10.760;2023-08-08T04:31:11;95901.00;;;12.56;62.30
63019;BME280;49105;46.046;10.760;2023-08-08T04:33:36;95910.56;;;12.52;63.13
63019;BME280;49105;46.046;10.760;2023-08-08T04:36:08;95911.47;;;12.37;63.67
63019;BME280;49105;46.046;10.760;2023-08-08T04:38:42;95915.75;;;12.33;64.04
63019;BME280;49105;46.046;10.760;2023-08-08T04:41:08;95916.47;;;12.44;63.41
63019;BME280;49105;46.046;10.760;2023-08-08T04:43:41;95926.81;;;12.45;63.84
63019;BME280;49105;46.046;10.760;2023-08-08T04:46:06;95922.56;;;12.44;63.55
63019;BME280;49105;46.046;10.760;2023-08-08T04:48:38;95919.53;;;12.61;62.94
63019;BME280;49105;46.046;10.760;2023-08-08T04:51:10;95916.75;;;12.76;62.96
63019;BME280;49105;46.046;10.760;2023-08-08T04:53:35;95917.34;;;12.68;62.50
63019;BME280;49105;46.046;10.760;2023-08-08T04:56:01;95915.16;;;12.75;63.01
63019;BME280;49105;46.046;10.760;2023-08-08T04:58:35;95912.53;;;12.70;62.35
63019;BME280;49105;46.046;10.760;2023-08-08T05:01:01;95923.22;;;12.65;62.21
63019;BME280;49105;46.046;10.760;2023-08-08T05:03:26;95922.38;;;12.70;62.17
63019;BME280;49105;46.046;10.760;2023-08-08T05:05:58;95926.53;;;12.81;62.67
63019;BME280;49105;46.046;10.760;2023-08-08T05:08:24;95925.22;;;12.78;62.35
63019;BME280;49105;46.046;10.760;2023-08-08T05:10:58;95934.75;;;12.84;63.06
63019;BME280;49105;46.046;10.760;2023-08-08T05:13:25;95924.78;;;12.95;62.81
63019;BME280;49105;46.046;10.760;2023-08-08T05:15:57;95922.66;;;12.97;61.75
63019;BME280;49105;46.046;10.760;2023-08-08T05:18:31;95920.69;;;13.08;61.72
63019;BME280;49105;46.046;10.760;2023-08-08T05:20:57;95921.22;;;13.10;61.69
63019;BME280;49105;46.046;10.760;2023-08-08T05:23:22;95931.91;;;13.05;62.35
63019;BME280;49105;46.046;10.760;2023-08-08T05:25:48;95932.50;;;12.97;62.54
63019;BME280;49105;46.046;10.760;2023-08-08T05:28:14;95924.47;;;13.02;62.72
63019;BME280;49105;46.046;10.760;2023-08-08T05:30:42;95919.66;;;13.04;62.65
63019;BME280;49105;46.046;10.760;2023-08-08T05:33:09;95922.56;;;13.07;62.27
63019;BME280;49105;46.046;10.760;2023-08-08T05:35:34;95930.16;;;13.19;62.60
63019;BME280;49105;46.046;10.760;2023-08-08T05:38:03;95928.78;;;13.51;62.23
63019;BME280;49105;46.046;10.760;2023-08-08T05:40:37;95933.16;;;13.84;61.46
63019;BME280;49105;46.046;10.760;2023-08-08T05:43:12;95929.22;;;14.01;60.00
63019;BME280;49105;46.046;10.760;2023-08-08T05:45:42;95932.69;;;14.20;59.63
63019;BME280;49105;46.046;10.760;2023-08-08T05:48:11;95934.75;;;14.23;58.82
63019;BME280;49105;46.046;10.760;2023-08-08T05:50:41;95928.38;;;14.24;58.13
63019;BME280;49105;46.046;10.760;2023-08-08T05:53:07;95924.19;;;14.18;57.76
63019;BME280;49105;46.046;10.760;2023-08-08T05:55:41;95931.47;;;14.31;58.25
63019;BME280;49105;46.046;10.760;2023-08-08T05:58:08;95925.28;;;14.55;58.26
63019;BME280;49105;46.046;10.760;2023-08-08T06:00:46;95923.84;;;14.62;57.88
63019;BME280;49105;46.046;10.760;2023-08-08T06:03:21;95931.94;;;14.71;57.58
63019;BME280;49105;46.046;10.760;2023-08-08T06:06:00;95937.28;;;14.71;57.60
63019;BME280;49105;46.046;10.760;2023-08-08T06:08:32;95939.47;;;14.69;57.40
63019;BME280;49105;46.046;10.760;2023-08-08T06:11:10;95942.47;;;14.81;57.87
63019;BME280;49105;46.046;10.760;2023-08-08T06:13:41;95940.50;;;14.87;57.48
63019;BME280;49105;46.046;10.760;2023-08-08T06:16:19;95939.81;;;14.95;57.23
63019;BME280;49105;46.046;10.760;2023-08-08T06:18:54;95937.75;;;15.06;56.83
63019;BME280;49105;46.046;10.760;2023-08-08T06:21:20;95948.25;;;15.02;55.97
63019;BME280;49105;46.046;10.760;2023-08-08T06:23:46;95940.72;;;15.04;55.66
63019;BME280;49105;46.046;10.760;2023-08-08T06:26:19;95943.72;;;15.30;55.75
63019;BME280;49105;46.046;10.760;2023-08-08T06:28:52;95926.34;;;15.47;55.53
63019;BME280;49105;46.046;10.760;2023-08-08T06:31:17;95925.97;;;15.53;55.41
63019;BME280;49105;46.046;10.760;2023-08-08T06:33:43;95918.47;;;15.55;54.82
63019;BME280;49105;46.046;10.760;2023-08-08T06:36:18;95919.63;;;15.63;54.30
63019;BME280;49105;46.046;10.760;2023-08-08T06:38:44;95920.25;;;15.60;52.74
63019;BME280;49105;46.046;10.760;2023-08-08T06:41:18;95919.66;;;15.49;51.96
63019;BME280;49105;46.046;10.760;2023-08-08T06:43:53;95913.72;;;15.52;51.68
63019;BME280;49105;46.046;10.760;2023-08-08T06:46:24;95912.84;;;15.57;51.67
63019;BME280;49105;46.046;10.760;2023-08-08T06:48:50;95905.81;;;15.75;51.86
63019;BME280;49105;46.046;10.760;2023-08-08T06:51:24;95925.22;;;15.80;50.91
63019;BME280;49105;46.046;10.760;2023-08-08T06:53:59;95922.91;;;15.87;50.70
63019;BME280;49105;46.046;10.760;2023-08-08T06:56:31;95922.19;;;15.96;50.27
63019;BME280;49105;46.046;10.760;2023-08-08T06:59:03;95916.44;;;16.16;50.53
63019;BME280;49105;46.046;10.760;2023-08-08T07:01:32;95918.63;;;16.36;50.58
63019;BME280;49105;46.046;10.760;2023-08-08T07:04:08;95917.88;;;16.58;50.30
63019;BME280;49105;46.046;10.760;2023-08-08T07:06:39;95921.00;;;16.74;49.82
63019;BME280;49105;46.046;10.760;2023-08-08T07:09:05;95917.09;;;16.80;48.23
63019;BME280;49105;46.046;10.760;2023-08-08T07:11:37;95915.47;;;16.71;48.04
63019;BME280;49105;46.046;10.760;2023-08-08T07:14:12;95904.22;;;16.82;48.27
63019;BME280;49105;46.046;10.760;2023-08-08T07:16:47;95907.25;;;16.90;48.43
63019;BME280;49105;46.046;10.760;2023-08-08T07:19:19;95912.50;;;17.03;48.46
63019;BME280;49105;46.046;10.760;2023-08-08T07:21:53;95908.31;;;17.11;48.29
63019;BME280;49105;46.046;10.760;2023-08-08T07:24:19;95908.66;;;17.18;48.63
63019;BME280;49105;46.046;10.760;2023-08-08T07:26:51;95906.19;;;17.30;48.49
63019;BME280;49105;46.046;10.760;2023-08-08T07:29:25;95907.03;;;17.40;48.05
63019;BME280;49105;46.046;10.760;2023-08-08T07:32:10;95903.91;;;17.46;47.74
63019;BME280;49105;46.046;10.760;2023-08-08T07:34:36;95911.91;;;17.38;45.94
63019;BME280;49105;46.046;10.760;2023-08-08T07:37:08;95906.06;;;17.35;45.21
63019;BME280;49105;46.046;10.760;2023-08-08T07:39:36;95909.69;;;17.40;45.29
63019;BME280;49105;46.046;10.760;2023-08-08T07:42:29;95909.41;;;17.41;45.40
63019;BME280;49105;46.046;10.760;2023-08-08T07:45:04;95901.88;;;17.52;45.07
63019;BME280;49105;46.046;10.760;2023-08-08T07:47:37;95901.09;;;17.60;44.93
63019;BME280;49105;46.046;10.760;2023-08-08T07:50:13;95904.56;;;17.60;44.66
63019;BME280;49105;46.046;10.760;2023-08-08T07:52:40;95894.03;;;17.64;44.21
63019;BME280;49105;46.046;10.760;2023-08-08T07:55:14;95897.50;;;17.73;44.53
63019;BME280;49105;46.046;10.760;2023-08-08T07:57:49;95892.53;;;17.80;43.96
63019;BME280;49105;46.046;10.760;2023-08-08T08:00:15;95889.69;;;17.85;44.04
63019;BME280;49105;46.046;10.760;2023-08-08T08:02:50;95890.53;;;18.03;44.16
63019;BME280;49105;46.046;10.760;2023-08-08T08:05:21;95890.22;;;18.22;44.06
63019;BME280;49105;46.046;10.760;2023-08-08T08:07:59;95890.69;;;18.42;44.26
63019;BME280;49105;46.046;10.760;2023-08-08T08:10:43;95885.03;;;18.52;44.43
63019;BME280;49105;46.046;10.760;2023-08-08T08:13:09;95890.69;;;18.59;44.23
63019;BME280;49105;46.046;10.760;2023-08-08T08:15:42;95890.84;;;18.63;44.28
63019;BME280;49105;46.046;10.760;2023-08-08T08:18:08;95889.88;;;18.67;44.38
63019;BME280;49105;46.046;10.760;2023-08-08T08:20:33;95889.09;;;18.75;44.73
63019;BME280;49105;46.046;10.760;2023-08-08T08:23:17;95883.44;;;18.86;44.20
63019;BME280;49105;46.046;10.760;2023-08-08T08:25:52;95885.63;;;18.83;43.80
63019;BME280;49105;46.046;10.760;2023-08-08T08:28:18;95882.97;;;18.75;42.38
63019;BME280;49105;46.046;10.760;2023-08-08T08:30:52;95866.84;;;18.83;42.21
63019;BME280;49105;46.046;10.760;2023-08-08T08:33:28;95867.31;;;18.94;42.49
63019;BME280;49105;46.046;10.760;2023-08-08T08:35:53;95863.81;;;19.02;42.49
63019;BME280;49105;46.046;10.760;2023-08-08T08:38:19;95864.91;;;19.10;43.00
63019;BME280;49105;46.046;10.760;2023-08-08T08:40:57;95866.28;;;19.16;43.48
63019;BME280;49105;46.046;10.760;2023-08-08T08:43:32;95863.28;;;19.18;43.43
63019;BME280;49105;46.046;10.760;2023-08-08T08:46:00;95851.13;;;19.20;43.42
63019;BME280;49105;46.046;10.760;2023-08-08T08:48:35;95849.06;;;19.26;43.53
63019;BME280;49105;46.046;10.760;2023-08-08T08:51:01;95848.88;;;19.31;43.53
63019;BME280;49105;46.046;10.760;2023-08-08T08:53:28;95853.56;;;19.43;43.40
63019;BME280;49105;46.046;10.760;2023-08-08T08:55:56;95847.34;;;19.51;43.11
63019;BME280;49105;46.046;10.760;2023-08-08T08:58:22;95842.56;;;19.56;43.09
63019;BME280;49105;46.046;10.760;2023-08-08T09:00:58;95835.91;;;19.71;42.67
63019;BME280;49105;46.046;10.760;2023-08-08T09:03:34;95845.91;;;19.83;42.97
63019;BME280;49105;46.046;10.760;2023-08-08T09:06:08;95842.00;;;19.80;43.12
63019;BME280;49105;46.046;10.760;2023-08-08T09:08:34;95836.81;;;19.75;42.82
63019;BME280;49105;46.046;10.760;2023-08-08T09:11:00;95834.25;;;19.79;43.81
63019;BME280;49105;46.046;10.760;2023-08-08T09:13:38;95836.22;;;19.91;43.71
63019;BME280;49105;46.046;10.760;2023-08-08T09:16:06;95832.31;;;20.09;42.32
63019;BME280;49105;46.046;10.760;2023-08-08T09:18:56;95825.88;;;20.22;41.63
63019;BME280;49105;46.046;10.760;2023-08-08T09:21:22;95827.44;;;20.23;40.52
63019;BME280;49105;46.046;10.760;2023-08-08T09:23:47;95822.53;;;20.25;41.06
63019;BME280;49105;46.046;10.760;2023-08-08T09:26:13;95824.94;;;20.39;41.43
63019;BME280;49105;46.046;10.760;2023-08-08T09:28:50;95814.16;;;20.60;41.51
63019;BME280;49105;46.046;10.760;2023-08-08T09:31:25;95811.84;;;20.71;40.85
63019;BME280;49105;46.046;10.760;2023-08-08T09:33:53;95807.59;;;20.70;40.11
63019;BME280;49105;46.046;10.760;2023-08-08T09:36:19;95810.72;;;20.72;41.18
63019;BME280;49105;46.046;10.760;2023-08-08T09:38:54;95805.72;;;20.83;40.88
63019;BME280;49105;46.046;10.760;2023-08-08T09:41:29;95808.19;;;20.88;40.63
63019;BME280;49105;46.046;10.760;2023-08-08T09:43:54;95793.59;;;20.89;39.74
63019;BME280;49105;46.046;10.760;2023-08-08T09:46:22;95788.88;;;20.86;39.15
63019;BME280;49105;46.046;10.760;2023-08-08T09:48:57;95789.91;;;20.93;39.67
63019;BME280;49105;46.046;10.760;2023-08-08T09:51:33;95794.06;;;21.03;39.29
63019;BME280;49105;46.046;10.760;2023-08-08T09:54:04;95780.81;;;21.10;39.38
63019;BME280;49105;46.046;10.760;2023-08-08T09:56:34;95794.63;;;21.21;39.04
63019;BME280;49105;46.046;10.760;2023-08-08T09:59:01;95781.19;;;21.21;38.80
63019;BME280;49105;46.046;10.760;2023-08-08T10:01:28;95782.06;;;21.25;39.00
63019;BME280;49105;46.046;10.760;2023-08-08T10:03:54;95775.66;;;21.29;38.80
63019;BME280;49105;46.046;10.760;2023-08-08T10:06:28;95776.81;;;21.41;39.09
63019;BME280;49105;46.046;10.760;2023-08-08T10:08:55;95770.63;;;21.52;38.60
63019;BME280;49105;46.046;10.760;2023-08-08T10:11:24;95762.63;;;21.56;38.32
63019;BME280;49105;46.046;10.760;2023-08-08T10:13:57;95771.41;;;21.65;38.56
63019;BME280;49105;46.046;10.760;2023-08-08T10:16:32;95763.06;;;21.70;38.05
63019;BME280;49105;46.046;10.760;2023-08-08T10:18:59;95759.72;;;21.73;37.81
63019;BME280;49105;46.046;10.760;2023-08-08T10:21:34;95761.69;;;21.76;36.83
63019;BME280;49105;46.046;10.760;2023-08-08T10:24:08;95757.13;;;21.77;36.58
63019;BME280;49105;46.046;10.760;2023-08-08T10:29:29;95746.19;;;21.86;36.50
63019;BME280;49105;46.046;10.760;2023-08-08T10:32:07;95736.06;;;21.95;36.74
63019;BME280;49105;46.046;10.760;2023-08-08T10:34:46;95738.19;;;22.01;35.90
63019;BME280;49105;46.046;10.760;2023-08-08T10:37:16;95734.44;;;22.06;35.83
63019;BME280;49105;46.046;10.760;2023-08-08T10:40:03;95734.84;;;22.20;35.87
63019;BME280;49105;46.046;10.760;2023-08-08T10:42:43;95734.31;;;22.15;35.39
63019;BME280;49105;46.046;10.760;2023-08-08T10:45:17;95730.94;;;22.18;35.59
63019;BME280;49105;46.046;10.760;2023-08-08T10:47:49;95726.09;;;22.23;35.70
63019;BME280;49105;46.046;10.760;2023-08-08T10:50:24;95721.81;;;22.22;35.90
63019;BME280;49105;46.046;10.760;2023-08-08T10:55:47;95706.75;;;22.21;36.20
63019;BME280;49105;46.046;10.760;2023-08-08T10:58:21;95700.50;;;22.17;35.85
63019;BME280;49105;46.046;10.760;2023-08-08T11:00:57;95701.13;;;22.26;35.71
63019;BME280;49105;46.046;10.760;2023-08-08T11:03:32;95700.34;;;22.42;35.93
63019;BME280;49105;46.046;10.760;2023-08-08T11:05:59;95695.16;;;22.49;36.12
63019;BME280;49105;46.046;10.760;2023-08-08T11:08:37;95685.81;;;22.46;36.13
63019;BME280;49105;46.046;10.760;2023-08-08T11:11:12;95691.22;;;22.46;36.48
63019;BME280;49105;46.046;10.760;2023-08-08T11:13:43;95690.34;;;22.42;36.51
63019;BME280;49105;46.046;10.760;2023-08-08T11:16:09;95685.56;;;22.36;36.38
63019;BME280;49105;46.046;10.760;2023-08-08T11:18:37;95686.72;;;22.35;36.78
63019;BME280;49105;46.046;10.760;2023-08-08T11:21:09;95677.91;;;22.38;36.51
63019;BME280;49105;46.046;10.760;2023-08-08T11:23:36;95679.50;;;22.39;36.69
63019;BME280;49105;46.046;10.760;2023-08-08T11:26:04;95671.47;;;22.42;36.98
63019;BME280;49105;46.046;10.760;2023-08-08T11:28:30;95670.00;;;22.45;36.59
63019;BME280;49105;46.046;10.760;2023-08-08T11:30:56;95669.63;;;22.46;36.68
63019;BME280;49105;46.046;10.760;2023-08-08T11:33:21;95668.84;;;22.46;36.76
63019;BME280;49105;46.046;10.760;2023-08-08T11:35:53;95664.34;;;22.50;36.64
63019;BME280;49105;46.046;10.760;2023-08-08T11:38:25;95659.13;;;22.57;36.90
63019;BME280;49105;46.046;10.760;2023-08-08T11:40:50;95659.91;;;22.58;36.69
63019;BME280;49105;46.046;10.760;2023-08-08T11:43:17;95653.63;;;22.53;36.64
63019;BME280;49105;46.046;10.760;2023-08-08T11:45:52;95655.09;;;22.67;36.59
63019;BME280;49105;46.046;10.760;2023-08-08T11:48:21;95656.50;;;22.76;36.19
63019;BME280;49105;46.046;10.760;2023-08-08T11:50:46;95652.13;;;22.88;36.43
63019;BME280;49105;46.046;10.760;2023-08-08T11:53:12;95641.44;;;22.91;35.60
63019;BME280;49105;46.046;10.760;2023-08-08T11:55:44;95644.13;;;22.91;36.22
63019;BME280;49105;46.046;10.760;2023-08-08T11:58:15;95643.69;;;22.89;36.55
63019;BME280;49105;46.046;10.760;2023-08-08T12:00:43;95649.63;;;22.95;36.38
63019;BME280;49105;46.046;10.760;2023-08-08T12:03:13;95635.94;;;22.88;36.46
63019;BME280;49105;46.046;10.760;2023-08-08T12:05:47;95632.03;;;22.85;36.71
63019;BME280;49105;46.046;10.760;2023-08-08T12:08:22;95626.47;;;22.78;36.59
63019;BME280;49105;46.046;10.760;2023-08-08T12:11:00;95634.28;;;22.83;36.83
63019;BME280;49105;46.046;10.760;2023-08-08T12:13:37;95625.78;;;22.81;36.18
63019;BME280;49105;46.046;10.760;2023-08-08T12:16:14;95625.06;;;22.84;36.22
63019;BME280;49105;46.046;10.760;2023-08-08T12:18:40;95623.69;;;22.90;36.14
63019;BME280;49105;46.046;10.760;2023-08-08T12:21:09;95624.63;;;22.98;36.13
63019;BME280;49105;46.046;10.760;2023-08-08T12:23:41;95621.16;;;22.97;36.39
63019;BME280;49105;46.046;10.760;2023-08-08T12:26:07;95617.59;;;22.93;36.35
63019;BME280;49105;46.046;10.760;2023-08-08T12:28:33;95616.81;;;22.93;36.09
63019;BME280;49105;46.046;10.760;2023-08-08T12:31:36;95616.81;;;22.93;36.30
63019;BME280;49105;46.046;10.760;2023-08-08T12:36:31;95605.66;;;22.94;36.64
63019;BME280;49105;46.046;10.760;2023-08-08T12:38:56;95611.56;;;23.00;36.38
63019;BME280;49105;46.046;10.760;2023-08-08T12:41:34;95604.84;;;23.10;36.65
63019;BME280;49105;46.046;10.760;2023-08-08T12:43:59;95604.19;;;23.16;36.81
63019;BME280;49105;46.046;10.760;2023-08-08T12:46:34;95602.78;;;23.22;36.85
63019;BME280;49105;46.046;10.760;2023-08-08T12:49:12;95601.09;;;23.34;37.03
63019;BME280;49105;46.046;10.760;2023-08-08T12:51:37;95606.50;;;23.34;36.88
63019;BME280;49105;46.046;10.760;2023-08-08T12:54:06;95601.94;;;23.38;36.96
63019;BME280;49105;46.046;10.760;2023-08-08T12:56:31;95600.09;;;23.42;36.63
63019;BME280;49105;46.046;10.760;2023-08-08T12:59:04;95595.25;;;23.32;36.57
63019;BME280;49105;46.046;10.760;2023-08-08T13:01:35;95597.31;;;23.19;36.86
63019;BME280;49105;46.046;10.760;2023-08-08T13:04:10;95599.66;;;23.20;37.09
63019;BME280;49105;46.046;10.760;2023-08-08T13:06:36;95596.38;;;23.11;36.70
63019;BME280;49105;46.046;10.760;2023-08-08T13:09:09;95593.19;;;23.06;37.03
63019;BME280;49105;46.046;10.760;2023-08-08T13:11:44;95588.34;;;23.15;37.42
63019;BME280;49105;46.046;10.760;2023-08-08T13:14:16;95589.69;;;23.24;37.60
63019;BME280;49105;46.046;10.760;2023-08-08T13:16:42;95588.22;;;23.27;38.07
63019;BME280;49105;46.046;10.760;2023-08-08T13:19:07;95584.59;;;23.39;38.14
63019;BME280;49105;46.046;10.760;2023-08-08T13:21:33;95581.81;;;23.55;38.02
63019;BME280;49105;46.046;10.760;2023-08-08T13:24:08;95578.63;;;23.68;37.88
63019;BME280;49105;46.046;10.760;2023-08-08T13:26:44;95574.06;;;23.72;37.67
63019;BME280;49105;46.046;10.760;2023-08-08T13:29:18;95572.22;;;23.76;37.97